Time;durP1;ratioP1;P1;durP2;ratioP2;P2;SDS_P1;SDS_P2;PMS_P1;PMS_P2;Temp;Humidity;BMP_temperature;BMP_pressure;BME280_temperature;BME280_humidity;BME280_pressure;Samples;Min_cycle;Max_cycle;Signal;HPM_P1;HPM_P2
2022/06/05 00:00:10;;;;;;;;;;;;;;;;;;341984;29;918;-78
2022/06/05 00:00:21;;;;;;;;;;;;;;;;;;342018;29;913;-78
2022/06/05 00:00:32;;;;;;;;;;;;;;;;;;341953;29;986;-77
2022/06/05 00:01:02;;;;;;;;;;;;;;;;;;342036;29;969;-77
2022/06/05 00:01:13;;;;;;;;;;;;;;;;;;340488;29;1029;-78
2022/06/05 00:01:46;;;;;;;;;;;;;;;;;;340504;29;1210;-78
2022/06/05 00:01:59;;;;;;;;;;;;;;;;;;337947;29;1009;-79
2022/06/05 00:02:35;;;;;;;;;;;;;;;;;;339333;29;1054;-78
2022/06/05 00:02:57;;;;;;;;;;;;;;;;;;341807;29;982;-78
2022/06/05 00:03:15;;;;;;;;;;;;;;;;;;341853;29;922;-78
2022/06/05 00:03:31;;;;;;;;;;;;;;;;;;341888;29;858;-78
2022/06/05 00:03:57;;;;;;;;;;;;;;;;;;341885;29;939;-78
2022/06/05 00:04:10;;;;;;;;;;;;;;;;;;340686;29;911;-78
2022/06/05 00:04:23;;;;;;;;;;;;;;;;;;340701;29;858;-78
2022/06/05 00:04:54;;;;;;;;;;;;;;;;;;340618;29;926;-78
2022/06/05 00:05:04;;;;;;;;;;;;;;;;;;340724;29;858;-78
2022/06/05 00:05:20;;;;;;;;;;;;;;;;;;340547;29;1304;-78
2022/06/05 00:05:37;;;;;;;;;;;;;;;;;;340634;29;962;-78
2022/06/05 00:05:59;;;;;;;;;;;;;;;;;;340530;29;1163;-77
2022/06/05 00:06:28;;;;;;;;;;;;;;;;;;340607;29;970;-78
2022/06/05 00:06:38;;;;;;;;;;;;;;;;;;340586;29;816;-77
2022/06/05 00:06:55;;;;;;;;;;;;;;;;;;340674;29;962;-77
2022/06/05 00:07:10;;;;;;;;;;;;;;;;;;340702;29;985;-77
2022/06/05 00:07:38;;;;;;;;;;;;;;;;;;341325;29;1413;-78
2022/06/05 00:07:56;;;;;;;;;;;;;;;;;;341614;29;1437;-79
2022/06/05 00:08:17;;;;;;;;;;;;;;;;;;342032;29;934;-78
2022/06/05 00:08:33;;;;;;;;;;;;;;;;;;341820;29;1002;-78
2022/06/05 00:09:02;;;;;;;;;;;;;;;;;;341966;29;922;-78
2022/06/05 00:09:20;;;;;;;;;;;;;;;;;;341983;29;1065;-78
2022/06/05 00:09:30;;;;;;;;;;;;;;;;;;342010;29;886;-78
2022/06/05 00:09:43;;;;;;;;;;;;;;;;;;342023;29;922;-78
2022/06/05 00:09:57;;;;;;;;;;;;;;;;;;341986;29;923;-78
2022/06/05 00:10:13;;;;;;;;;;;;;;;;;;341909;29;999;-78
2022/06/05 00:10:25;;;;;;;;;;;;;;;;;;341963;29;930;-78
2022/06/05 00:10:43;;;;;;;;;;;;;;;;;;342000;29;907;-78
2022/06/05 00:10:54;;;;;;;;;;;;;;;;;;341786;29;1140;-78
2022/06/05 00:11:07;;;;;;;;;;;;;;;;;;342020;29;799;-78
2022/06/05 00:11:18;;;;;;;;;;;;;;;;;;342021;29;992;-78
2022/06/05 00:11:35;;;;;;;;;;;;;;;;;;341929;29;1006;-78
2022/06/05 00:11:48;;;;;;;;;;;;;;;;;;342037;29;776;-78
2022/06/05 00:11:58;;;;;;;;;;;;;;;;;;342018;29;934;-77
2022/06/05 00:12:13;;;;;;;;;;;;;;;;;;341993;29;795;-77
2022/06/05 00:12:32;;;;;;;;;;;;;;;;;;341928;29;974;-77
2022/06/05 00:12:45;;;;;;;;;;;;;;;;;;341910;29;1017;-77
2022/06/05 00:13:06;;;;;;;;;;;;;;;;;;341922;29;1009;-77
2022/06/05 00:13:20;;;;;;;;;;;;;;;;;;341943;29;914;-77
2022/06/05 00:13:41;;;;;;;;;;;;;;;;;;341995;29;922;-77
2022/06/05 00:13:55;;;;;;;;;;;;;;;;;;341953;29;926;-77
2022/06/05 00:14:05;;;;;;;;;;;;;;;;;;342007;29;911;-77
2022/06/05 00:14:15;;;;;;;;;;;;;;;;;;342020;29;994;-77
2022/06/05 00:14:26;;;;;;;;;;;;;;;;;;341915;29;1005;-77
2022/06/05 00:14:37;;;;;;;;;;;;;;;;;;342014;29;914;-77
2022/06/05 00:14:48;;;;;;;;;;;;;;;;;;342019;29;1091;-77
2022/06/05 00:14:58;;;;;;;;;;;;;;;;;;341938;29;799;-78
2022/06/05 00:15:10;;;;;;;;;;;;;;;;;;342006;29;942;-78
2022/06/05 00:15:20;;;;;;;;;;;;;;;;;;342005;29;941;-77
2022/06/05 00:15:30;;;;;;;;;;;;;;;;;;341924;29;941;-77
2022/06/05 00:15:41;;;;;;;;;;;;;;;;;;341856;29;1321;-77
2022/06/05 00:15:52;;;;;;;;;;;;;;;;;;342042;29;915;-77
2022/06/05 00:16:03;;;;;;;;;;;;;;;;;;342027;29;855;-77
2022/06/05 00:16:14;;;;;;;;;;;;;;;;;;342000;29;927;-77
2022/06/05 00:16:26;;;;;;;;;;;;;;;;;;341835;29;989;-77
2022/06/05 00:16:36;;;;;;;;;;;;;;;;;;341914;29;931;-77
2022/06/05 00:16:46;;;;;;;;;;;;;;;;;;341950;29;1053;-78
2022/06/05 00:16:56;;;;;;;;;;;;;;;;;;341797;29;1007;-78
2022/06/05 00:17:09;;;;;;;;;;;;;;;;;;341964;29;918;-78
2022/06/05 00:17:20;;;;;;;;;;;;;;;;;;341919;29;922;-78
2022/06/05 00:17:30;;;;;;;;;;;;;;;;;;341980;29;922;-77
2022/06/05 00:17:41;;;;;;;;;;;;;;;;;;342032;29;866;-77
2022/06/05 00:17:51;;;;;;;;;;;;;;;;;;342020;29;961;-77
2022/06/05 00:18:01;;;;;;;;;;;;;;;;;;341759;29;1658;-77
2022/06/05 00:18:12;;;;;;;;;;;;;;;;;;341900;29;911;-77
2022/06/05 00:18:22;;;;;;;;;;;;;;;;;;342005;29;918;-77
2022/06/05 00:18:33;;;;;;;;;;;;;;;;;;341998;29;942;-77
2022/06/05 00:18:44;;;;;;;;;;;;;;;;;;341962;29;1038;-77
2022/06/05 00:18:55;;;;;;;;;;;;;;;;;;341988;29;891;-78
2022/06/05 00:19:05;;;;;;;;;;;;;;;;;;341921;29;934;-78
2022/06/05 00:19:15;;;;;;;;;;;;;;;;;;342021;29;764;-78
2022/06/05 00:19:26;;;;;;;;;;;;;;;;;;342003;29;911;-78
2022/06/05 00:19:37;;;;;;;;;;;;;;;;;;341988;29;918;-78
2022/06/05 00:19:50;;;;;;;;;;;;;;;;;;342014;29;970;-78
2022/06/05 00:20:00;;;;;;;;;;;;;;;;;;341942;29;957;-78
2022/06/05 00:20:11;;;;;;;;;;;;;;;;;;341980;29;934;-78
2022/06/05 00:20:22;;;;;;;;;;;;;;;;;;341985;29;1073;-78
2022/06/05 00:20:33;;;;;;;;;;;;;;;;;;341954;29;949;-78
2022/06/05 00:20:44;;;;;;;;;;;;;;;;;;341945;29;930;-78
2022/06/05 00:20:54;;;;;;;;;;;;;;;;;;341976;29;1037;-78
2022/06/05 00:21:05;;;;;;;;;;;;;;;;;;341835;29;1002;-78
2022/06/05 00:21:16;;;;;;;;;;;;;;;;;;341936;29;938;-78
2022/06/05 00:21:26;;;;;;;;;;;;;;;;;;341769;29;993;-79
2022/06/05 00:21:37;;;;;;;;;;;;;;;;;;342009;29;965;-77
2022/06/05 00:21:47;;;;;;;;;;;;;;;;;;341942;29;966;-78
2022/06/05 00:21:57;;;;;;;;;;;;;;;;;;341997;29;919;-78
2022/06/05 00:22:08;;;;;;;;;;;;;;;;;;341980;29;914;-77
2022/06/05 00:22:19;;;;;;;;;;;;;;;;;;341955;29;906;-78
2022/06/05 00:22:29;;;;;;;;;;;;;;;;;;342018;29;807;-78
2022/06/05 00:22:40;;;;;;;;;;;;;;;;;;341988;29;914;-78
2022/06/05 00:22:50;;;;;;;;;;;;;;;;;;341745;29;1160;-78
2022/06/05 00:23:00;;;;;;;;;;;;;;;;;;341989;29;950;-78
2022/06/05 00:23:10;;;;;;;;;;;;;;;;;;341959;29;1068;-78
2022/06/05 00:23:21;;;;;;;;;;;;;;;;;;341912;29;931;-78
2022/06/05 00:23:31;;;;;;;;;;;;;;;;;;341838;29;995;-78
2022/06/05 00:23:42;;;;;;;;;;;;;;;;;;341979;29;795;-78
2022/06/05 00:23:52;;;;;;;;;;;;;;;;;;341960;29;978;-78
2022/06/05 00:24:02;;;;;;;;;;;;;;;;;;341972;29;1005;-77
2022/06/05 00:24:13;;;;;;;;;;;;;;;;;;342028;29;831;-77
2022/06/05 00:24:23;;;;;;;;;;;;;;;;;;341788;29;977;-78
2022/06/05 00:24:33;;;;;;;;;;;;;;;;;;342007;29;760;-78
2022/06/05 00:24:44;;;;;;;;;;;;;;;;;;341971;29;993;-78
2022/06/05 00:24:54;;;;;;;;;;;;;;;;;;341946;29;938;-78
2022/06/05 00:25:05;;;;;;;;;;;;;;;;;;341995;29;894;-78
2022/06/05 00:25:15;;;;;;;;;;;;;;;;;;341994;29;918;-78
2022/06/05 00:25:31;;;;;;;;;;;;;;;;;;341867;29;1060;-78
2022/06/05 00:25:51;;;;;;;;;;;;;;;;;;341979;29;922;-78
2022/06/05 00:26:07;;;;;;;;;;;;;;;;;;341939;29;993;-78
2022/06/05 00:26:33;;;;;;;;;;;;;;;;;;341965;29;922;-79
2022/06/05 00:26:49;;;;;;;;;;;;;;;;;;341983;29;926;-79
2022/06/05 00:27:09;;;;;;;;;;;;;;;;;;342010;29;915;-78
2022/06/05 00:27:23;;;;;;;;;;;;;;;;;;341922;29;974;-78
2022/06/05 00:27:33;;;;;;;;;;;;;;;;;;341946;29;1009;-78
2022/06/05 00:27:53;;;;;;;;;;;;;;;;;;341950;29;942;-78
2022/06/05 00:28:10;;;;;;;;;;;;;;;;;;341951;29;918;-77
2022/06/05 00:28:43;;;;;;;;;;;;;;;;;;341973;29;923;-78
2022/06/05 00:29:02;;;;;;;;;;;;;;;;;;339084;29;1911;-77
2022/06/05 00:29:24;;;;;;;;;;;;;;;;;;341916;29;1257;-77
2022/06/05 00:29:44;;;;;;;;;;;;;;;;;;341862;29;922;-77
2022/06/05 00:30:17;;;;;;;;;;;;;;;;;;341988;29;783;-78
2022/06/05 00:30:40;;;;;;;;;;;;;;;;;;341989;29;965;-77
2022/06/05 00:31:04;;;;;;;;;;;;;;;;;;341833;29;994;-78
2022/06/05 00:31:23;;;;;;;;;;;;;;;;;;341940;29;1080;-78
2022/06/05 00:32:00;;;;;;;;;;;;;;;;;;341974;29;811;-78
2022/06/05 00:32:13;;;;;;;;;;;;;;;;;;336514;29;1156;-77
2022/06/05 00:32:23;;;;;;;;;;;;;;;;;;336554;29;963;-78
2022/06/05 00:32:42;;;;;;;;;;;;;;;;;;336547;29;1374;-78
2022/06/05 00:33:10;;;;;;;;;;;;;;;;;;336550;29;1047;-78
2022/06/05 00:33:29;;;;;;;;;;;;;;;;;;342025;29;775;-77
2022/06/05 00:33:40;;;;;;;;;;;;;;;;;;341834;29;985;-78
2022/06/05 00:33:51;;;;;;;;;;;;;;;;;;341996;29;799;-78
2022/06/05 00:34:01;;;;;;;;;;;;;;;;;;341937;29;1068;-78
2022/06/05 00:34:11;;;;;;;;;;;;;;;;;;341975;29;906;-77
2022/06/05 00:34:22;;;;;;;;;;;;;;;;;;341817;29;1014;-77
2022/06/05 00:34:33;;;;;;;;;;;;;;;;;;342013;29;881;-77
2022/06/05 00:34:43;;;;;;;;;;;;;;;;;;341909;29;1088;-77
2022/06/05 00:34:53;;;;;;;;;;;;;;;;;;341965;29;822;-77
2022/06/05 00:35:04;;;;;;;;;;;;;;;;;;341975;29;816;-77
2022/06/05 00:35:17;;;;;;;;;;;;;;;;;;341907;29;1073;-77
2022/06/05 00:35:33;;;;;;;;;;;;;;;;;;341985;29;921;-77
2022/06/05 00:35:47;;;;;;;;;;;;;;;;;;341885;29;1083;-78
2022/06/05 00:36:01;;;;;;;;;;;;;;;;;;341932;29;876;-78
2022/06/05 00:36:12;;;;;;;;;;;;;;;;;;341991;29;805;-78
2022/06/05 00:36:25;;;;;;;;;;;;;;;;;;342004;29;859;-78
2022/06/05 00:36:41;;;;;;;;;;;;;;;;;;341952;29;1002;-77
2022/06/05 00:37:00;;;;;;;;;;;;;;;;;;341942;29;898;-77
2022/06/05 00:37:19;;;;;;;;;;;;;;;;;;341963;29;1033;-78
2022/06/05 00:37:34;;;;;;;;;;;;;;;;;;341896;29;1328;-77
2022/06/05 00:38:06;;;;;;;;;;;;;;;;;;341984;29;906;-78
2022/06/05 00:38:20;;;;;;;;;;;;;;;;;;341212;29;1563;-78
2022/06/05 00:38:37;;;;;;;;;;;;;;;;;;341980;29;925;-78
2022/06/05 00:39:02;;;;;;;;;;;;;;;;;;341751;29;1031;-78
2022/06/05 00:39:17;;;;;;;;;;;;;;;;;;341942;29;914;-78
2022/06/05 00:39:36;;;;;;;;;;;;;;;;;;341951;29;1058;-78
2022/06/05 00:40:07;;;;;;;;;;;;;;;;;;341985;29;850;-78
2022/06/05 00:40:20;;;;;;;;;;;;;;;;;;341930;29;1076;-78
2022/06/05 00:40:30;;;;;;;;;;;;;;;;;;341978;29;910;-78
2022/06/05 00:40:41;;;;;;;;;;;;;;;;;;341994;29;878;-77
2022/06/05 00:41:09;;;;;;;;;;;;;;;;;;341925;29;1124;-77
2022/06/05 00:41:46;;;;;;;;;;;;;;;;;;341976;29;946;-77
2022/06/05 00:42:08;;;;;;;;;;;;;;;;;;340605;29;1052;-78
2022/06/05 00:42:21;;;;;;;;;;;;;;;;;;341905;29;914;-78
2022/06/05 00:42:32;;;;;;;;;;;;;;;;;;341925;29;938;-78
2022/06/05 00:42:43;;;;;;;;;;;;;;;;;;342031;29;985;-78
2022/06/05 00:42:53;;;;;;;;;;;;;;;;;;341951;29;843;-77
2022/06/05 00:43:06;;;;;;;;;;;;;;;;;;342013;29;870;-77
2022/06/05 00:43:18;;;;;;;;;;;;;;;;;;341794;29;1080;-78
2022/06/05 00:43:28;;;;;;;;;;;;;;;;;;341883;29;965;-78
2022/06/05 00:43:39;;;;;;;;;;;;;;;;;;341954;29;847;-78
2022/06/05 00:43:52;;;;;;;;;;;;;;;;;;341968;29;1037;-78
2022/06/05 00:44:04;;;;;;;;;;;;;;;;;;341771;29;1049;-78
2022/06/05 00:44:17;;;;;;;;;;;;;;;;;;341927;29;925;-78
2022/06/05 00:44:27;;;;;;;;;;;;;;;;;;341925;29;949;-77
2022/06/05 00:44:46;;;;;;;;;;;;;;;;;;342006;29;1035;-77
2022/06/05 00:44:58;;;;;;;;;;;;;;;;;;341972;29;904;-77
2022/06/05 00:45:10;;;;;;;;;;;;;;;;;;341941;29;965;-78
2022/06/05 00:45:20;;;;;;;;;;;;;;;;;;341852;29;1613;-78
2022/06/05 00:45:31;;;;;;;;;;;;;;;;;;341914;29;1001;-78
2022/06/05 00:45:42;;;;;;;;;;;;;;;;;;341922;29;965;-78
2022/06/05 00:45:55;;;;;;;;;;;;;;;;;;341930;29;1013;-78
2022/06/05 00:46:05;;;;;;;;;;;;;;;;;;341894;29;934;-78
2022/06/05 00:46:15;;;;;;;;;;;;;;;;;;341875;29;1052;-77
2022/06/05 00:46:26;;;;;;;;;;;;;;;;;;341998;29;958;-78
2022/06/05 00:46:37;;;;;;;;;;;;;;;;;;341824;29;1038;-78
2022/06/05 00:46:49;;;;;;;;;;;;;;;;;;341750;29;1156;-77
2022/06/05 00:46:59;;;;;;;;;;;;;;;;;;341965;29;918;-77
2022/06/05 00:47:11;;;;;;;;;;;;;;;;;;341926;29;934;-77
2022/06/05 00:47:30;;;;;;;;;;;;;;;;;;341935;29;938;-78
2022/06/05 00:47:41;;;;;;;;;;;;;;;;;;341995;29;922;-78
2022/06/05 00:47:51;;;;;;;;;;;;;;;;;;341982;29;854;-78
2022/06/05 00:48:02;;;;;;;;;;;;;;;;;;341771;29;1235;-78
2022/06/05 00:48:12;;;;;;;;;;;;;;;;;;341881;29;930;-78
2022/06/05 00:48:23;;;;;;;;;;;;;;;;;;341961;29;902;-77
2022/06/05 00:48:33;;;;;;;;;;;;;;;;;;341955;29;969;-77
2022/06/05 00:48:45;;;;;;;;;;;;;;;;;;341914;29;985;-77
2022/06/05 00:48:56;;;;;;;;;;;;;;;;;;341940;29;1899;-78
2022/06/05 00:49:06;;;;;;;;;;;;;;;;;;341924;29;895;-78
2022/06/05 00:49:17;;;;;;;;;;;;;;;;;;341895;29;933;-77
2022/06/05 00:49:32;;;;;;;;;;;;;;;;;;341991;29;838;-77
2022/06/05 00:49:45;;;;;;;;;;;;;;;;;;341921;29;1056;-77
2022/06/05 00:50:01;;;;;;;;;;;;;;;;;;341942;29;896;-77
2022/06/05 00:50:11;;;;;;;;;;;;;;;;;;341915;29;915;-77
2022/06/05 00:50:23;;;;;;;;;;;;;;;;;;341945;29;787;-77
2022/06/05 00:50:34;;;;;;;;;;;;;;;;;;341963;29;941;-77
2022/06/05 00:50:44;;;;;;;;;;;;;;;;;;341982;29;914;-77
2022/06/05 00:50:55;;;;;;;;;;;;;;;;;;341960;29;1001;-77
2022/06/05 00:51:05;;;;;;;;;;;;;;;;;;341950;29;930;-77
2022/06/05 00:51:15;;;;;;;;;;;;;;;;;;341967;29;830;-77
2022/06/05 00:51:25;;;;;;;;;;;;;;;;;;341956;29;926;-77
2022/06/05 00:51:36;;;;;;;;;;;;;;;;;;341967;29;922;-77
2022/06/05 00:51:46;;;;;;;;;;;;;;;;;;341887;29;933;-77
2022/06/05 00:51:56;;;;;;;;;;;;;;;;;;341971;29;985;-77
2022/06/05 00:52:08;;;;;;;;;;;;;;;;;;341770;28;910;-77
2022/06/05 00:52:20;;;;;;;;;;;;;;;;;;341899;29;909;-77
2022/06/05 00:52:31;;;;;;;;;;;;;;;;;;341972;29;807;-77
2022/06/05 00:52:43;;;;;;;;;;;;;;;;;;342021;29;978;-78
2022/06/05 00:52:55;;;;;;;;;;;;;;;;;;341938;29;847;-78
2022/06/05 00:53:07;;;;;;;;;;;;;;;;;;341976;29;922;-78
2022/06/05 00:53:17;;;;;;;;;;;;;;;;;;341901;29;942;-78
2022/06/05 00:53:28;;;;;;;;;;;;;;;;;;341962;29;1144;-78
2022/06/05 00:53:38;;;;;;;;;;;;;;;;;;341978;29;910;-78
2022/06/05 00:53:49;;;;;;;;;;;;;;;;;;342013;29;1085;-78
2022/06/05 00:53:59;;;;;;;;;;;;;;;;;;341983;29;1028;-78
2022/06/05 00:54:09;;;;;;;;;;;;;;;;;;341916;29;993;-78
2022/06/05 00:54:20;;;;;;;;;;;;;;;;;;341907;29;957;-77
2022/06/05 00:54:30;;;;;;;;;;;;;;;;;;341963;29;910;-77
2022/06/05 00:54:40;;;;;;;;;;;;;;;;;;341895;29;988;-77
2022/06/05 00:54:50;;;;;;;;;;;;;;;;;;341892;29;858;-77
2022/06/05 00:55:02;;;;;;;;;;;;;;;;;;341873;29;1649;-77
2022/06/05 00:55:15;;;;;;;;;;;;;;;;;;340663;29;879;-77
2022/06/05 00:55:28;;;;;;;;;;;;;;;;;;340602;29;850;-77
2022/06/05 00:55:40;;;;;;;;;;;;;;;;;;340625;29;973;-77
2022/06/05 00:55:52;;;;;;;;;;;;;;;;;;340644;29;926;-78
2022/06/05 00:56:02;;;;;;;;;;;;;;;;;;340573;29;1041;-77
2022/06/05 00:56:12;;;;;;;;;;;;;;;;;;340437;29;1033;-77
2022/06/05 00:56:23;;;;;;;;;;;;;;;;;;340671;29;926;-77
2022/06/05 00:56:33;;;;;;;;;;;;;;;;;;340630;29;930;-79
2022/06/05 00:56:43;;;;;;;;;;;;;;;;;;340534;29;886;-78
2022/06/05 00:56:54;;;;;;;;;;;;;;;;;;340623;29;934;-78
2022/06/05 00:57:06;;;;;;;;;;;;;;;;;;340640;29;929;-78
2022/06/05 00:57:17;;;;;;;;;;;;;;;;;;340632;29;891;-78
2022/06/05 00:57:28;;;;;;;;;;;;;;;;;;340649;29;845;-78
2022/06/05 00:57:39;;;;;;;;;;;;;;;;;;340604;29;974;-78
2022/06/05 00:57:49;;;;;;;;;;;;;;;;;;340628;29;965;-78
2022/06/05 00:57:59;;;;;;;;;;;;;;;;;;340668;29;926;-77
2022/06/05 00:58:10;;;;;;;;;;;;;;;;;;340648;29;915;-78
2022/06/05 00:58:21;;;;;;;;;;;;;;;;;;340609;29;961;-78
2022/06/05 00:58:31;;;;;;;;;;;;;;;;;;340584;29;913;-78
2022/06/05 00:58:41;;;;;;;;;;;;;;;;;;340611;29;799;-78
2022/06/05 00:58:52;;;;;;;;;;;;;;;;;;340432;29;1056;-77
2022/06/05 00:59:02;;;;;;;;;;;;;;;;;;340652;29;783;-78
2022/06/05 00:59:13;;;;;;;;;;;;;;;;;;340635;29;914;-78
2022/06/05 00:59:23;;;;;;;;;;;;;;;;;;340490;29;927;-78
2022/06/05 00:59:34;;;;;;;;;;;;;;;;;;340640;29;969;-77
2022/06/05 00:59:46;;;;;;;;;;;;;;;;;;340593;29;1184;-77
2022/06/05 00:59:57;;;;;;;;;;;;;;;;;;340631;29;981;-77
2022/06/05 01:00:13;;;;;;;;;;;;;;;;;;340652;29;909;-77
2022/06/05 01:00:35;;;;;;;;;;;;;;;;;;340490;29;1052;-77
2022/06/05 01:00:52;;;;;;;;;;;;;;;;;;340634;29;863;-77
2022/06/05 01:01:03;;;;;;;;;;;;;;;;;;340522;29;1131;-77
2022/06/05 01:01:13;;;;;;;;;;;;;;;;;;340601;29;1010;-78
2022/06/05 01:01:23;;;;;;;;;;;;;;;;;;340550;29;1042;-78
2022/06/05 01:01:33;;;;;;;;;;;;;;;;;;340670;29;970;-78
2022/06/05 01:01:44;;;;;;;;;;;;;;;;;;341373;29;1442;-78
2022/06/05 01:01:55;;;;;;;;;;;;;;;;;;341962;29;993;-78
2022/06/05 01:02:06;;;;;;;;;;;;;;;;;;341677;29;1081;-78
2022/06/05 01:02:17;;;;;;;;;;;;;;;;;;341929;29;918;-77
2022/06/05 01:02:28;;;;;;;;;;;;;;;;;;341856;29;911;-77
2022/06/05 01:02:39;;;;;;;;;;;;;;;;;;341965;29;930;-77
2022/06/05 01:02:51;;;;;;;;;;;;;;;;;;341883;29;787;-77
2022/06/05 01:03:04;;;;;;;;;;;;;;;;;;341966;29;918;-78
2022/06/05 01:03:15;;;;;;;;;;;;;;;;;;341857;29;1056;-78
2022/06/05 01:03:25;;;;;;;;;;;;;;;;;;341897;29;930;-78
2022/06/05 01:03:36;;;;;;;;;;;;;;;;;;341844;29;1089;-78
2022/06/05 01:03:46;;;;;;;;;;;;;;;;;;341918;29;930;-78
2022/06/05 01:04:01;;;;;;;;;;;;;;;;;;341906;29;988;-78
2022/06/05 01:04:12;;;;;;;;;;;;;;;;;;341905;29;930;-78
2022/06/05 01:04:22;;;;;;;;;;;;;;;;;;341906;29;903;-78
2022/06/05 01:04:33;;;;;;;;;;;;;;;;;;341909;29;997;-78
2022/06/05 01:04:46;;;;;;;;;;;;;;;;;;341898;29;860;-78
2022/06/05 01:04:56;;;;;;;;;;;;;;;;;;341816;29;1059;-78
2022/06/05 01:05:08;;;;;;;;;;;;;;;;;;341816;29;922;-78
2022/06/05 01:05:19;;;;;;;;;;;;;;;;;;341762;29;1262;-78
2022/06/05 01:05:30;;;;;;;;;;;;;;;;;;341904;29;967;-78
2022/06/05 01:05:40;;;;;;;;;;;;;;;;;;341923;29;977;-78
2022/06/05 01:05:51;;;;;;;;;;;;;;;;;;341895;29;890;-78
2022/06/05 01:06:02;;;;;;;;;;;;;;;;;;341968;29;926;-78
2022/06/05 01:06:13;;;;;;;;;;;;;;;;;;341870;29;977;-78
2022/06/05 01:06:24;;;;;;;;;;;;;;;;;;341909;29;954;-78
2022/06/05 01:06:35;;;;;;;;;;;;;;;;;;341869;29;954;-78
2022/06/05 01:06:45;;;;;;;;;;;;;;;;;;341934;29;946;-78
2022/06/05 01:06:55;;;;;;;;;;;;;;;;;;341915;29;934;-78
2022/06/05 01:07:06;;;;;;;;;;;;;;;;;;341836;29;973;-77
2022/06/05 01:07:18;;;;;;;;;;;;;;;;;;341920;29;1009;-78
2022/06/05 01:07:28;;;;;;;;;;;;;;;;;;340434;29;1450;-78
2022/06/05 01:07:38;;;;;;;;;;;;;;;;;;340496;29;1404;-78
2022/06/05 01:07:49;;;;;;;;;;;;;;;;;;340625;29;886;-78
2022/06/05 01:07:59;;;;;;;;;;;;;;;;;;340566;29;985;-78
2022/06/05 01:08:10;;;;;;;;;;;;;;;;;;340601;29;918;-77
2022/06/05 01:08:20;;;;;;;;;;;;;;;;;;340603;29;981;-78
2022/06/05 01:08:30;;;;;;;;;;;;;;;;;;340528;29;1006;-78
2022/06/05 01:08:41;;;;;;;;;;;;;;;;;;340563;29;942;-78
2022/06/05 01:08:51;;;;;;;;;;;;;;;;;;340567;29;1960;-78
2022/06/05 01:09:03;;;;;;;;;;;;;;;;;;340598;29;927;-79
2022/06/05 01:09:13;;;;;;;;;;;;;;;;;;340569;29;772;-78
2022/06/05 01:09:23;;;;;;;;;;;;;;;;;;340622;29;973;-78
2022/06/05 01:09:34;;;;;;;;;;;;;;;;;;340596;29;973;-78
2022/06/05 01:09:45;;;;;;;;;;;;;;;;;;340591;29;851;-79
2022/06/05 01:09:55;;;;;;;;;;;;;;;;;;339207;29;1563;-78
2022/06/05 01:10:06;;;;;;;;;;;;;;;;;;339217;29;1073;-78
2022/06/05 01:10:17;;;;;;;;;;;;;;;;;;340590;29;899;-78
2022/06/05 01:10:35;;;;;;;;;;;;;;;;;;340450;29;1013;-78
2022/06/05 01:10:51;;;;;;;;;;;;;;;;;;340474;29;1075;-78
2022/06/05 01:11:01;;;;;;;;;;;;;;;;;;340644;29;839;-77
2022/06/05 01:11:17;;;;;;;;;;;;;;;;;;340554;29;918;-78
2022/06/05 01:11:36;;;;;;;;;;;;;;;;;;340618;29;918;-77
2022/06/05 01:11:55;;;;;;;;;;;;;;;;;;340524;29;1615;-77
2022/06/05 01:12:13;;;;;;;;;;;;;;;;;;339179;29;899;-77
2022/06/05 01:12:44;;;;;;;;;;;;;;;;;;339266;29;997;-78
2022/06/05 01:13:13;;;;;;;;;;;;;;;;;;336463;29;1043;-77
2022/06/05 01:13:41;;;;;;;;;;;;;;;;;;336517;29;871;-78
2022/06/05 01:14:04;;;;;;;;;;;;;;;;;;336522;29;911;-78
2022/06/05 01:14:37;;;;;;;;;;;;;;;;;;339291;29;1001;-78
2022/06/05 01:15:10;;;;;;;;;;;;;;;;;;336511;29;939;-78
2022/06/05 01:15:26;;;;;;;;;;;;;;;;;;337788;29;1034;-78
2022/06/05 01:15:42;;;;;;;;;;;;;;;;;;337814;29;1017;-78
2022/06/05 01:16:09;;;;;;;;;;;;;;;;;;337677;29;989;-79
2022/06/05 01:16:24;;;;;;;;;;;;;;;;;;337873;29;1157;-78
2022/06/05 01:16:45;;;;;;;;;;;;;;;;;;339195;29;1013;-78
2022/06/05 01:17:00;;;;;;;;;;;;;;;;;;339275;29;938;-78
2022/06/05 01:17:21;;;;;;;;;;;;;;;;;;339270;29;981;-78
2022/06/05 01:17:39;;;;;;;;;;;;;;;;;;339315;29;1002;-78
2022/06/05 01:18:00;;;;;;;;;;;;;;;;;;339281;29;946;-77
2022/06/05 01:18:10;;;;;;;;;;;;;;;;;;339292;29;811;-78
2022/06/05 01:18:35;;;;;;;;;;;;;;;;;;339267;29;1010;-78
2022/06/05 01:18:51;;;;;;;;;;;;;;;;;;339297;29;820;-78
2022/06/05 01:19:20;;;;;;;;;;;;;;;;;;339267;29;977;-78
2022/06/05 01:19:30;;;;;;;;;;;;;;;;;;339243;29;934;-78
2022/06/05 01:19:59;;;;;;;;;;;;;;;;;;339254;29;898;-78
2022/06/05 01:20:27;;;;;;;;;;;;;;;;;;339330;29;890;-78
2022/06/05 01:20:41;;;;;;;;;;;;;;;;;;339288;29;878;-78
2022/06/05 01:21:10;;;;;;;;;;;;;;;;;;339253;29;997;-78
2022/06/05 01:21:34;;;;;;;;;;;;;;;;;;339260;29;986;-78
2022/06/05 01:22:05;;;;;;;;;;;;;;;;;;339127;29;1030;-78
2022/06/05 01:22:33;;;;;;;;;;;;;;;;;;336513;29;964;-78
2022/06/05 01:22:57;;;;;;;;;;;;;;;;;;336557;29;919;-77
2022/06/05 01:23:27;;;;;;;;;;;;;;;;;;336511;29;911;-79
2022/06/05 01:23:46;;;;;;;;;;;;;;;;;;339237;29;1013;-78
2022/06/05 01:23:56;;;;;;;;;;;;;;;;;;339216;29;931;-78
2022/06/05 01:24:17;;;;;;;;;;;;;;;;;;339281;29;974;-78
2022/06/05 01:24:44;;;;;;;;;;;;;;;;;;339273;29;963;-79
2022/06/05 01:25:13;;;;;;;;;;;;;;;;;;339268;29;982;-78
2022/06/05 01:25:44;;;;;;;;;;;;;;;;;;339283;29;942;-78
2022/06/05 01:26:03;;;;;;;;;;;;;;;;;;339166;29;890;-78
2022/06/05 01:26:19;;;;;;;;;;;;;;;;;;339284;29;883;-78
2022/06/05 01:26:42;;;;;;;;;;;;;;;;;;339279;29;819;-78
2022/06/05 01:26:55;;;;;;;;;;;;;;;;;;339241;29;906;-77
2022/06/05 01:27:07;;;;;;;;;;;;;;;;;;339292;29;836;-78
2022/06/05 01:27:21;;;;;;;;;;;;;;;;;;339132;29;1015;-78
2022/06/05 01:27:34;;;;;;;;;;;;;;;;;;339274;29;911;-78
2022/06/05 01:27:49;;;;;;;;;;;;;;;;;;339239;29;898;-78
2022/06/05 01:28:06;;;;;;;;;;;;;;;;;;339183;29;1002;-78
2022/06/05 01:28:17;;;;;;;;;;;;;;;;;;339238;29;1042;-78
2022/06/05 01:28:30;;;;;;;;;;;;;;;;;;339133;29;1003;-78
2022/06/05 01:28:56;;;;;;;;;;;;;;;;;;339216;29;1018;-78
2022/06/05 01:29:06;;;;;;;;;;;;;;;;;;339231;29;930;-78
2022/06/05 01:29:32;;;;;;;;;;;;;;;;;;339300;29;930;-79
2022/06/05 01:29:46;;;;;;;;;;;;;;;;;;339258;29;816;-77
2022/06/05 01:30:03;;;;;;;;;;;;;;;;;;339177;29;982;-78
2022/06/05 01:30:18;;;;;;;;;;;;;;;;;;339253;29;888;-79
2022/06/05 01:30:30;;;;;;;;;;;;;;;;;;339243;29;863;-78
2022/06/05 01:30:49;;;;;;;;;;;;;;;;;;339212;29;827;-78
2022/06/05 01:31:29;;;;;;;;;;;;;;;;;;339253;29;847;-77
2022/06/05 01:31:49;;;;;;;;;;;;;;;;;;336533;29;903;-77
2022/06/05 01:32:09;;;;;;;;;;;;;;;;;;336390;29;1233;-78
2022/06/05 01:32:38;;;;;;;;;;;;;;;;;;339266;29;930;-78
2022/06/05 01:32:59;;;;;;;;;;;;;;;;;;339236;29;978;-78
2022/06/05 01:33:22;;;;;;;;;;;;;;;;;;339268;29;938;-78
2022/06/05 01:33:33;;;;;;;;;;;;;;;;;;339211;29;1088;-77
2022/06/05 01:34:06;;;;;;;;;;;;;;;;;;339289;29;855;-77
2022/06/05 01:34:26;;;;;;;;;;;;;;;;;;336476;29;868;-77
2022/06/05 01:34:40;;;;;;;;;;;;;;;;;;336521;29;974;-78
2022/06/05 01:34:56;;;;;;;;;;;;;;;;;;336545;29;895;-78
2022/06/05 01:35:18;;;;;;;;;;;;;;;;;;336429;29;950;-78
2022/06/05 01:35:36;;;;;;;;;;;;;;;;;;339312;29;796;-78
2022/06/05 01:35:58;;;;;;;;;;;;;;;;;;339215;29;975;-78
2022/06/05 01:36:24;;;;;;;;;;;;;;;;;;339201;29;804;-77
2022/06/05 01:36:38;;;;;;;;;;;;;;;;;;339231;29;1135;-78
2022/06/05 01:36:57;;;;;;;;;;;;;;;;;;339254;29;930;-78
2022/06/05 01:37:40;;;;;;;;;;;;;;;;;;340086;29;1342;-78
2022/06/05 01:37:54;;;;;;;;;;;;;;;;;;339143;29;937;-78
2022/06/05 01:38:10;;;;;;;;;;;;;;;;;;339052;29;1306;-78
2022/06/05 01:38:41;;;;;;;;;;;;;;;;;;338926;29;1014;-78
2022/06/05 01:39:04;;;;;;;;;;;;;;;;;;335208;29;1150;-78
2022/06/05 01:39:19;;;;;;;;;;;;;;;;;;339276;29;1083;-78
2022/06/05 01:39:33;;;;;;;;;;;;;;;;;;340574;29;1056;-79
2022/06/05 01:39:47;;;;;;;;;;;;;;;;;;340632;29;867;-78
2022/06/05 01:40:01;;;;;;;;;;;;;;;;;;339197;29;1623;-78
2022/06/05 01:40:14;;;;;;;;;;;;;;;;;;340041;29;1009;-77
2022/06/05 01:40:31;;;;;;;;;;;;;;;;;;339054;29;1284;-78
2022/06/05 01:40:45;;;;;;;;;;;;;;;;;;339108;29;982;-78
2022/06/05 01:40:57;;;;;;;;;;;;;;;;;;339069;29;1240;-78
2022/06/05 01:41:20;;;;;;;;;;;;;;;;;;338858;29;1319;-78
2022/06/05 01:41:34;;;;;;;;;;;;;;;;;;336406;29;935;-78
2022/06/05 01:41:46;;;;;;;;;;;;;;;;;;339073;29;1338;-78
2022/06/05 01:42:00;;;;;;;;;;;;;;;;;;339242;29;800;-78
2022/06/05 01:42:15;;;;;;;;;;;;;;;;;;339237;29;776;-78
2022/06/05 01:42:28;;;;;;;;;;;;;;;;;;340384;29;999;-78
2022/06/05 01:42:41;;;;;;;;;;;;;;;;;;340595;29;977;-78
2022/06/05 01:43:06;;;;;;;;;;;;;;;;;;340446;29;1015;-78
2022/06/05 01:43:19;;;;;;;;;;;;;;;;;;340502;29;981;-78
2022/06/05 01:43:31;;;;;;;;;;;;;;;;;;340548;29;1013;-78
2022/06/05 01:43:45;;;;;;;;;;;;;;;;;;340613;29;819;-78
2022/06/05 01:43:58;;;;;;;;;;;;;;;;;;340619;29;957;-78
2022/06/05 01:44:10;;;;;;;;;;;;;;;;;;340266;29;1535;-78
2022/06/05 01:44:26;;;;;;;;;;;;;;;;;;340440;29;1146;-78
2022/06/05 01:44:39;;;;;;;;;;;;;;;;;;340561;29;834;-78
2022/06/05 01:44:54;;;;;;;;;;;;;;;;;;340408;29;999;-78
2022/06/05 01:45:10;;;;;;;;;;;;;;;;;;340610;29;772;-78
2022/06/05 01:45:29;;;;;;;;;;;;;;;;;;340523;29;1080;-78
2022/06/05 01:45:46;;;;;;;;;;;;;;;;;;340608;29;1055;-77
2022/06/05 01:46:00;;;;;;;;;;;;;;;;;;340544;29;906;-78
2022/06/05 01:46:14;;;;;;;;;;;;;;;;;;340610;29;811;-79